createdAt,value
2023-02-26T00:01:46.094Z,1.00
2023-02-26T00:04:13.131Z,1.00
2023-02-26T00:06:54.505Z,1.00
2023-02-26T00:09:23.545Z,1.00
2023-02-26T00:11:51.177Z,1.00
2023-02-26T00:14:18.875Z,1.00
2023-02-26T00:17:12.407Z,0.90
2023-02-26T00:19:39.919Z,0.90
2023-02-26T00:22:07.421Z,0.90
2023-02-26T00:24:34.403Z,0.90
2023-02-26T00:27:01.485Z,0.90
2023-02-26T00:29:28.979Z,0.80
2023-02-26T00:31:56.572Z,0.70
2023-02-26T00:34:23.943Z,0.80
2023-02-26T00:37:24.462Z,0.80
2023-02-26T00:40:21.664Z,0.80
2023-02-26T00:42:49.382Z,0.80
2023-02-26T00:45:17.387Z,0.90
2023-02-26T00:48:45.552Z,1.00
2023-02-26T00:51:37.892Z,1.10
2023-02-26T00:54:16.664Z,1.10
2023-02-26T00:56:43.835Z,1.20
2023-02-26T00:59:10.920Z,1.10
2023-02-26T01:01:38.299Z,1.00
2023-02-26T01:04:06.174Z,0.90
2023-02-26T01:06:38.317Z,1.00
2023-02-26T01:09:08.375Z,1.00
2023-02-26T01:11:36.626Z,1.00
2023-02-26T01:14:05.623Z,1.10
2023-02-26T01:16:49.259Z,1.00
2023-02-26T01:19:36.201Z,1.00
2023-02-26T01:22:33.260Z,1.00
2023-02-26T01:25:10.130Z,0.90
2023-02-26T01:27:37.835Z,0.90
2023-02-26T01:30:07.486Z,0.90
2023-02-26T01:33:28.916Z,1.00
2023-02-26T01:36:08.516Z,0.90
2023-02-26T01:39:12.374Z,0.80
2023-02-26T01:41:55.034Z,0.90
2023-02-26T01:45:04.319Z,0.90
2023-02-26T01:47:48.536Z,0.90
2023-02-26T01:50:25.776Z,0.90
2023-02-26T01:53:13.697Z,1.00
2023-02-26T01:55:56.819Z,1.00
2023-02-26T01:58:26.235Z,1.00
2023-02-26T02:00:53.404Z,1.00
2023-02-26T02:03:24.707Z,1.00
2023-02-26T02:05:59.274Z,1.00
2023-02-26T02:08:26.500Z,1.10
2023-02-26T02:10:54.646Z,1.10
2023-02-26T02:13:32.040Z,1.10
2023-02-26T02:16:43.118Z,1.00
2023-02-26T02:19:30.846Z,1.00
2023-02-26T02:22:59.724Z,0.90
2023-02-26T02:25:53.915Z,0.80
2023-02-26T02:29:03.621Z,0.80
2023-02-26T02:31:47.064Z,0.80
2023-02-26T02:34:46.246Z,0.80
2023-02-26T02:37:34.597Z,0.80
2023-02-26T02:40:16.992Z,0.80
2023-02-26T02:42:56.337Z,0.70
2023-02-26T02:45:36.336Z,0.70
2023-02-26T02:48:25.318Z,0.70
2023-02-26T02:51:12.657Z,0.70
2023-02-26T02:54:07.193Z,0.80
2023-02-26T02:57:08.205Z,0.70
2023-02-26T02:59:53.684Z,0.80
2023-02-26T03:03:00.985Z,0.80
2023-02-26T03:05:28.221Z,0.90
2023-02-26T03:08:14.838Z,0.80
2023-02-26T03:10:42.926Z,0.80
2023-02-26T03:13:23.399Z,0.70
2023-02-26T03:16:49.868Z,0.70
2023-02-26T03:20:08.097Z,0.70
2023-02-26T03:22:52.951Z,0.90
2023-02-26T03:25:38.050Z,0.80
2023-02-26T03:28:25.874Z,0.90
2023-02-26T03:31:02.508Z,0.90
2023-02-26T03:33:54.487Z,0.90
2023-02-26T03:36:36.236Z,1.00
2023-02-26T03:39:20.355Z,1.00
2023-02-26T03:42:08.196Z,1.00
2023-02-26T03:44:44.073Z,1.00
2023-02-26T03:47:15.870Z,1.10
2023-02-26T03:49:50.520Z,1.10
2023-02-26T03:52:17.770Z,1.10
2023-02-26T03:55:00.335Z,1.10
2023-02-26T03:57:27.878Z,1.20
2023-02-26T03:59:55.222Z,1.20
2023-02-26T04:02:33.361Z,1.10
2023-02-26T04:05:16.244Z,1.10
2023-02-26T04:07:45.567Z,1.10
2023-02-26T04:10:18.574Z,1.10
2023-02-26T04:12:45.590Z,1.10
2023-02-26T04:15:13.112Z,1.10
2023-02-26T04:17:40.072Z,1.10
2023-02-26T04:20:09.933Z,1.20
2023-02-26T04:22:38.357Z,1.20
2023-02-26T04:25:06.404Z,1.20
2023-02-26T04:27:33.392Z,1.20
2023-02-26T04:30:00.445Z,1.20
2023-02-26T04:32:27.490Z,1.10
2023-02-26T04:34:54.533Z,1.10
2023-02-26T04:37:21.483Z,1.20
2023-02-26T04:39:48.492Z,1.20
2023-02-26T04:42:15.522Z,1.10
2023-02-26T04:44:42.537Z,1.10
2023-02-26T04:47:09.665Z,1.20
2023-02-26T04:49:36.677Z,1.20
2023-02-26T04:52:03.681Z,1.20
2023-02-26T04:54:30.915Z,1.20
2023-02-26T04:56:58.206Z,1.10
2023-02-26T04:59:25.229Z,1.20
2023-02-26T05:01:52.263Z,1.10
2023-02-26T05:04:19.393Z,1.20
2023-02-26T05:06:46.448Z,1.20
2023-02-26T05:09:13.519Z,1.20
2023-02-26T05:11:40.534Z,1.10
2023-02-26T05:14:07.851Z,1.10
2023-02-26T05:16:35.639Z,1.10
2023-02-26T05:19:02.713Z,1.20
2023-02-26T05:21:29.815Z,1.30
2023-02-26T05:23:56.872Z,1.30
2023-02-26T05:26:24.452Z,1.20
2023-02-26T05:28:52.621Z,1.20
2023-02-26T05:31:20.031Z,1.20
2023-02-26T05:33:47.009Z,1.20
2023-02-26T05:36:14.308Z,1.10
2023-02-26T05:38:41.291Z,1.10
2023-02-26T05:41:08.341Z,1.20
2023-02-26T05:43:36.019Z,1.30
2023-02-26T05:46:03.287Z,1.30
2023-02-26T05:48:30.408Z,1.30
2023-02-26T05:50:57.495Z,1.30
2023-02-26T05:53:24.524Z,1.40
2023-02-26T05:55:54.225Z,1.40
2023-02-26T05:58:22.891Z,1.50
2023-02-26T06:00:50.257Z,1.50
2023-02-26T06:03:17.325Z,1.60
2023-02-26T06:05:44.563Z,1.60
2023-02-26T06:08:15.565Z,1.60
2023-02-26T06:10:43.667Z,1.60
2023-02-26T06:13:11.009Z,1.70
2023-02-26T06:15:38.008Z,1.70
2023-02-26T06:18:05.299Z,1.70
2023-02-26T06:20:32.386Z,1.70
2023-02-26T06:22:59.348Z,1.80
2023-02-26T06:25:26.502Z,1.70
2023-02-26T06:27:53.517Z,1.60
2023-02-26T06:30:20.745Z,1.60
2023-02-26T06:32:47.807Z,1.60
2023-02-26T06:35:14.989Z,1.50
2023-02-26T06:37:41.991Z,1.40
2023-02-26T06:40:10.857Z,1.40
2023-02-26T06:42:38.162Z,1.40
2023-02-26T06:45:05.854Z,1.40
2023-02-26T06:47:33.050Z,1.50
2023-02-26T06:50:00.118Z,1.50
2023-02-26T06:52:27.180Z,1.50
2023-02-26T06:54:54.245Z,1.60
2023-02-26T06:57:21.250Z,1.60
2023-02-26T06:59:48.393Z,1.70
2023-02-26T07:02:22.305Z,1.70
2023-02-26T07:04:49.517Z,1.70
2023-02-26T07:07:16.860Z,1.60
2023-02-26T07:09:45.934Z,1.60
2023-02-26T07:12:13.531Z,1.70
2023-02-26T07:14:40.876Z,1.80
2023-02-26T07:17:07.919Z,1.80
2023-02-26T07:19:35.039Z,1.80
2023-02-26T07:22:02.178Z,1.90
2023-02-26T07:24:29.795Z,1.90
2023-02-26T07:26:56.854Z,1.90
2023-02-26T07:29:23.944Z,1.90
2023-02-26T07:31:51.142Z,1.90
2023-02-26T07:34:18.458Z,1.80
2023-02-26T07:36:45.448Z,1.80
2023-02-26T07:39:12.629Z,1.80
2023-02-26T07:41:39.735Z,1.80
2023-02-26T07:44:07.204Z,1.70
2023-02-26T07:46:34.311Z,1.80
2023-02-26T07:49:01.346Z,1.80
2023-02-26T07:51:28.537Z,1.90
2023-02-26T07:53:55.566Z,2.00
2023-02-26T07:56:22.644Z,2.00
2023-02-26T07:58:49.638Z,2.10
2023-02-26T08:01:16.712Z,2.30
2023-02-26T08:03:43.720Z,2.40
2023-02-26T08:06:10.949Z,2.50
2023-02-26T08:08:38.030Z,2.70
2023-02-26T08:11:06.665Z,2.70
2023-02-26T08:13:33.965Z,2.80
2023-02-26T08:16:01.015Z,2.80
2023-02-26T08:18:29.130Z,3.00
2023-02-26T08:20:56.823Z,3.40
2023-02-26T08:23:24.132Z,3.50
2023-02-26T08:25:52.618Z,3.40
2023-02-26T08:28:26.743Z,3.30
2023-02-26T08:30:57.364Z,3.30
2023-02-26T08:33:26.183Z,3.40
2023-02-26T08:35:53.860Z,3.40
2023-02-26T08:38:21.453Z,3.40
2023-02-26T08:40:52.704Z,3.60
2023-02-26T08:43:23.449Z,3.70
2023-02-26T08:45:54.246Z,3.80
2023-02-26T08:48:24.077Z,3.80
2023-02-26T08:50:51.664Z,3.90
2023-02-26T08:53:18.781Z,4.00
2023-02-26T08:55:50.393Z,4.20
2023-02-26T08:58:18.130Z,4.50
2023-02-26T09:00:45.766Z,4.80
2023-02-26T09:03:13.582Z,5.10
2023-02-26T09:05:40.995Z,5.20
2023-02-26T09:08:09.277Z,4.90
2023-02-26T09:10:36.349Z,4.80
2023-02-26T09:13:03.373Z,4.60
2023-02-26T09:15:30.514Z,4.50
2023-02-26T09:17:57.961Z,4.40
2023-02-26T09:20:25.183Z,4.50
2023-02-26T09:22:52.322Z,4.50
2023-02-26T09:25:22.295Z,4.40
2023-02-26T09:27:49.746Z,4.40
2023-02-26T09:30:17.450Z,4.20
2023-02-26T09:32:44.723Z,4.10
2023-02-26T09:35:11.819Z,4.20
2023-02-26T09:37:40.123Z,4.20
2023-02-26T09:40:15.846Z,4.20
2023-02-26T09:43:08.900Z,4.20
2023-02-26T09:45:42.401Z,4.10
2023-02-26T09:48:16.360Z,4.10
2023-02-26T09:50:51.708Z,4.20
2023-02-26T09:53:31.357Z,4.20
2023-02-26T09:56:26.114Z,4.10
2023-02-26T09:58:55.557Z,4.20
2023-02-26T10:01:36.662Z,4.30
2023-02-26T10:04:21.906Z,4.50
2023-02-26T10:07:16.778Z,4.60
2023-02-26T10:10:10.901Z,4.60
2023-02-26T10:12:42.505Z,4.70
2023-02-26T10:15:37.956Z,4.70
2023-02-26T10:18:19.627Z,4.70
2023-02-26T10:21:09.599Z,4.60
2023-02-26T10:23:45.321Z,4.80
2023-02-26T10:26:21.688Z,4.70
2023-02-26T10:29:07.433Z,4.60
2023-02-26T10:32:17.605Z,4.40
2023-02-26T10:35:04.229Z,4.50
2023-02-26T10:37:48.911Z,4.40
2023-02-26T10:40:50.325Z,4.40
2023-02-26T10:43:32.357Z,4.30
2023-02-26T10:46:52.069Z,4.50
2023-02-26T10:49:33.738Z,4.60
2023-02-26T10:52:23.604Z,4.60
2023-02-26T10:54:56.665Z,4.50
2023-02-26T10:57:33.203Z,4.50
2023-02-26T11:00:01.878Z,4.70
2023-02-26T11:02:41.381Z,4.60
2023-02-26T11:05:19.529Z,4.70
2023-02-26T11:07:54.688Z,4.70
2023-02-26T11:10:27.342Z,4.80
2023-02-26T11:12:54.489Z,4.80
2023-02-26T11:15:25.919Z,4.80
2023-02-26T11:17:59.990Z,4.60
2023-02-26T11:20:44.136Z,4.60
2023-02-26T11:23:20.801Z,4.50
2023-02-26T11:26:04.773Z,4.30
2023-02-26T11:28:42.910Z,4.30
2023-02-26T11:31:15.133Z,4.40
2023-02-26T11:34:05.026Z,4.50
2023-02-26T11:36:34.663Z,4.70
2023-02-26T11:39:16.754Z,4.60
2023-02-26T11:41:47.638Z,4.60
2023-02-26T11:44:41.124Z,4.60
2023-02-26T11:47:16.497Z,4.70
2023-02-26T11:50:19.892Z,4.40
2023-02-26T11:52:56.211Z,4.30
2023-02-26T11:55:44.900Z,4.10
2023-02-26T11:58:23.532Z,4.20
2023-02-26T12:00:58.116Z,4.10
2023-02-26T12:03:32.224Z,4.00
2023-02-26T12:06:01.748Z,3.90
2023-02-26T12:08:40.742Z,3.90
2023-02-26T12:11:44.124Z,3.90
2023-02-26T12:14:35.596Z,3.80
2023-02-26T12:17:20.380Z,3.90
2023-02-26T12:20:20.053Z,3.80
2023-02-26T12:23:14.383Z,3.90
2023-02-26T12:26:18.743Z,3.70
2023-02-26T12:29:07.799Z,3.60
2023-02-26T12:31:59.185Z,3.60
2023-02-26T12:34:47.003Z,3.70
2023-02-26T12:38:06.246Z,3.60
2023-02-26T12:41:06.627Z,3.60
2023-02-26T12:43:51.398Z,3.40
2023-02-26T12:46:33.222Z,3.50
2023-02-26T12:49:21.387Z,3.50
2023-02-26T12:52:17.447Z,3.60
2023-02-26T12:55:24.413Z,3.60
2023-02-26T12:58:24.393Z,3.50
2023-02-26T13:01:14.536Z,3.60
2023-02-26T13:04:03.085Z,3.60
2023-02-26T13:07:11.728Z,3.70
2023-02-26T13:09:56.624Z,3.70
2023-02-26T13:13:13.239Z,3.80
2023-02-26T13:16:07.683Z,3.70
2023-02-26T13:18:49.109Z,3.60
2023-02-26T13:21:31.174Z,3.60
2023-02-26T13:24:12.582Z,3.60
2023-02-26T13:26:42.639Z,3.60
2023-02-26T13:29:19.504Z,3.60
2023-02-26T13:31:57.213Z,3.40
2023-02-26T13:34:50.444Z,3.20
2023-02-26T13:37:34.272Z,3.20
2023-02-26T13:40:30.058Z,3.00
2023-02-26T13:43:27.250Z,3.20
2023-02-26T13:46:22.540Z,3.10
2023-02-26T13:49:19.027Z,3.00
2023-02-26T13:51:49.636Z,3.00
2023-02-26T13:54:22.808Z,2.90
2023-02-26T13:57:33.172Z,2.90
2023-02-26T14:00:29.102Z,2.80
2023-02-26T14:02:59.165Z,2.90
2023-02-26T14:06:09.258Z,2.70
2023-02-26T14:08:45.240Z,2.60
2023-02-26T14:11:18.354Z,2.60
2023-02-26T14:14:23.686Z,2.70
2023-02-26T14:17:13.947Z,2.60
2023-02-26T14:19:52.789Z,2.70
2023-02-26T14:22:44.281Z,2.60
2023-02-26T14:25:35.219Z,2.70
2023-02-26T14:28:30.877Z,2.70
2023-02-26T14:31:04.302Z,2.60
2023-02-26T14:33:46.188Z,2.60
2023-02-26T14:36:47.813Z,2.60
2023-02-26T14:39:36.816Z,2.60
2023-02-26T14:42:28.945Z,2.60
2023-02-26T14:45:31.808Z,2.60
2023-02-26T14:48:01.961Z,2.50
2023-02-26T14:51:22.590Z,2.50
2023-02-26T14:53:58.785Z,2.50
2023-02-26T14:57:10.725Z,2.40
2023-02-26T15:00:13.968Z,2.40
2023-02-26T15:03:16.270Z,2.40
2023-02-26T15:06:08.475Z,2.40
2023-02-26T15:09:01.041Z,2.30
2023-02-26T15:11:36.729Z,2.30
2023-02-26T15:14:43.629Z,2.40
2023-02-26T15:18:01.269Z,2.40
2023-02-26T15:21:04.410Z,2.40
2023-02-26T15:23:45.657Z,2.40
2023-02-26T15:26:26.328Z,2.40
2023-02-26T15:28:54.846Z,2.40
2023-02-26T15:31:32.132Z,2.30
2023-02-26T15:33:59.604Z,2.30
2023-02-26T15:36:31.493Z,2.30
2023-02-26T15:39:03.695Z,2.30
2023-02-26T15:41:33.920Z,2.30
2023-02-26T15:44:10.716Z,2.30
2023-02-26T15:46:50.904Z,2.20
2023-02-26T15:49:24.245Z,2.20
2023-02-26T15:51:53.310Z,2.20
2023-02-26T15:54:24.727Z,2.20
2023-02-26T15:56:53.001Z,2.30
2023-02-26T15:59:30.670Z,2.20
2023-02-26T16:01:58.308Z,2.20
2023-02-26T16:04:25.188Z,2.20
2023-02-26T16:06:58.255Z,2.20
2023-02-26T16:09:34.929Z,2.20
2023-02-26T16:12:16.306Z,2.20
2023-02-26T16:14:51.561Z,2.20
2023-02-26T16:17:34.776Z,2.20
2023-02-26T16:20:11.053Z,2.20
2023-02-26T16:22:50.257Z,2.10
2023-02-26T16:25:36.694Z,1.90
2023-02-26T16:28:13.675Z,1.80
2023-02-26T16:30:47.546Z,1.80
2023-02-26T16:33:18.705Z,1.70
2023-02-26T16:35:53.340Z,1.60
2023-02-26T16:38:26.359Z,1.70
2023-02-26T16:41:07.796Z,1.60
2023-02-26T16:43:49.609Z,1.50
2023-02-26T16:46:43.325Z,1.50
2023-02-26T16:49:23.813Z,1.50
2023-02-26T16:51:52.821Z,1.40
2023-02-26T16:54:28.507Z,1.40
2023-02-26T16:57:06.080Z,1.40
2023-02-26T16:59:38.594Z,1.40
2023-02-26T17:02:24.699Z,1.30
2023-02-26T17:04:59.724Z,1.20
2023-02-26T17:07:34.351Z,1.20
2023-02-26T17:10:50.035Z,1.20
2023-02-26T17:13:25.676Z,1.10
2023-02-26T17:15:54.501Z,1.10
2023-02-26T17:18:21.507Z,1.10
2023-02-26T17:20:48.743Z,1.00
2023-02-26T17:23:18.749Z,1.00
2023-02-26T17:25:52.889Z,1.00
2023-02-26T17:28:36.229Z,1.00
2023-02-26T17:31:05.715Z,1.00
2023-02-26T17:33:32.738Z,0.90
2023-02-26T17:36:03.196Z,0.90
2023-02-26T17:38:32.944Z,0.90
2023-02-26T17:41:00.839Z,0.90
2023-02-26T17:43:28.918Z,0.90
2023-02-26T17:45:56.378Z,0.90
2023-02-26T17:48:25.127Z,0.80
2023-02-26T17:50:58.876Z,0.80
2023-02-26T17:53:27.776Z,0.90
2023-02-26T17:55:56.631Z,0.90
2023-02-26T17:58:34.095Z,0.90
2023-02-26T18:01:06.237Z,0.90
2023-02-26T18:03:33.676Z,1.00
2023-02-26T18:06:02.492Z,1.00
2023-02-26T18:08:35.166Z,1.10
2023-02-26T18:11:04.216Z,1.10
2023-02-26T18:13:32.224Z,1.10
2023-02-26T18:16:02.977Z,1.10
2023-02-26T18:18:32.013Z,1.20
2023-02-26T18:21:00.199Z,1.20
2023-02-26T18:23:27.295Z,1.10
2023-02-26T18:25:55.307Z,1.20
2023-02-26T18:28:26.639Z,1.20
2023-02-26T18:30:56.197Z,1.20
2023-02-26T18:33:25.060Z,1.20
2023-02-26T18:35:56.727Z,1.20
2023-02-26T18:38:27.645Z,1.20
2023-02-26T18:40:55.638Z,1.20
2023-02-26T18:43:23.055Z,1.20
2023-02-26T18:45:52.338Z,1.10
2023-02-26T18:48:21.497Z,1.10
2023-02-26T18:50:49.683Z,1.10
2023-02-26T18:53:17.892Z,1.10
2023-02-26T18:55:45.283Z,1.10
2023-02-26T18:58:13.245Z,1.20
2023-02-26T19:00:40.721Z,1.20
2023-02-26T19:03:09.718Z,1.10
2023-02-26T19:05:38.112Z,1.10
2023-02-26T19:08:06.933Z,1.10
2023-02-26T19:10:34.810Z,1.10
2023-02-26T19:13:03.141Z,1.10
2023-02-26T19:15:31.148Z,1.10
2023-02-26T19:17:58.537Z,1.10
2023-02-26T19:20:25.992Z,1.00
2023-02-26T19:22:53.391Z,1.00
2023-02-26T19:25:24.471Z,0.90
2023-02-26T19:27:53.691Z,0.90
2023-02-26T19:30:23.423Z,0.90
2023-02-26T19:32:53.270Z,0.90
2023-02-26T19:35:21.357Z,0.90
2023-02-26T19:37:48.856Z,0.90
2023-02-26T19:40:19.636Z,0.80
2023-02-26T19:42:47.690Z,0.80
2023-02-26T19:45:15.750Z,0.80
2023-02-26T19:47:42.680Z,0.80
2023-02-26T19:50:12.921Z,0.80
2023-02-26T19:52:41.002Z,0.90
2023-02-26T19:55:09.412Z,0.70
2023-02-26T19:57:36.893Z,0.60
2023-02-26T20:00:05.667Z,0.60
2023-02-26T20:02:32.899Z,0.50
2023-02-26T20:05:00.763Z,0.40
2023-02-26T20:07:27.668Z,0.30
2023-02-26T20:09:54.599Z,0.40
2023-02-26T20:12:21.606Z,0.30
2023-02-26T20:14:49.063Z,0.10
2023-02-26T20:17:16.057Z,0.10
2023-02-26T20:19:44.549Z,0.00
2023-02-26T20:22:11.762Z,0.00
2023-02-26T20:24:38.817Z,0.00
2023-02-26T20:27:07.243Z,0.00
2023-02-26T20:29:34.579Z,0.00
2023-02-26T20:32:01.725Z,0.00
2023-02-26T20:34:28.622Z,0.00
2023-02-26T20:36:55.867Z,-0.10
2023-02-26T20:39:23.648Z,-0.10
2023-02-26T20:41:50.750Z,0.00
2023-02-26T20:44:18.877Z,0.10
2023-02-26T20:46:46.038Z,0.10
2023-02-26T20:49:13.030Z,0.20
2023-02-26T20:51:42.437Z,0.20
2023-02-26T20:54:16.199Z,0.30
2023-02-26T20:56:43.525Z,0.40
2023-02-26T20:59:10.624Z,0.40
2023-02-26T21:01:37.616Z,0.40
2023-02-26T21:04:09.162Z,0.40
2023-02-26T21:06:37.257Z,0.40
2023-02-26T21:09:06.119Z,0.40
2023-02-26T21:11:36.850Z,0.40
2023-02-26T21:14:09.589Z,0.50
2023-02-26T21:16:39.789Z,0.50
2023-02-26T21:19:06.821Z,0.50
2023-02-26T21:21:33.949Z,0.60
2023-02-26T21:24:01.115Z,0.60
2023-02-26T21:26:28.102Z,0.60
2023-02-26T21:28:55.075Z,0.50
2023-02-26T21:31:22.406Z,0.60
2023-02-26T21:33:49.504Z,0.70
2023-02-26T21:36:16.491Z,0.70
2023-02-26T21:38:43.543Z,0.70
2023-02-26T21:41:10.989Z,0.70
2023-02-26T21:43:38.202Z,0.80
2023-02-26T21:46:05.721Z,0.80
2023-02-26T21:48:32.891Z,0.80
2023-02-26T21:50:59.932Z,0.80
2023-02-26T21:53:27.944Z,0.80
2023-02-26T21:55:56.769Z,0.90
2023-02-26T21:58:25.430Z,0.80
2023-02-26T22:00:52.624Z,0.70
2023-02-26T22:03:19.970Z,0.80
2023-02-26T22:05:50.347Z,0.70
2023-02-26T22:08:17.188Z,0.60
2023-02-26T22:10:45.552Z,0.60
2023-02-26T22:13:12.943Z,0.60
2023-02-26T22:15:40.126Z,0.60
2023-02-26T22:18:08.768Z,0.60
2023-02-26T22:20:35.604Z,0.60
2023-02-26T22:23:02.602Z,0.70
2023-02-26T22:25:29.534Z,0.70
2023-02-26T22:27:56.649Z,0.70
2023-02-26T22:30:23.866Z,0.70
2023-02-26T22:32:50.841Z,0.70
2023-02-26T22:35:17.873Z,0.70
2023-02-26T22:37:45.088Z,0.70
2023-02-26T22:40:13.936Z,0.70
2023-02-26T22:42:42.895Z,0.70
2023-02-26T22:45:17.136Z,0.70
2023-02-26T22:47:46.379Z,0.70
2023-02-26T22:50:15.553Z,0.70
2023-02-26T22:52:43.335Z,0.70
2023-02-26T22:55:11.760Z,0.70
2023-02-26T22:57:38.703Z,0.80
2023-02-26T23:00:12.103Z,0.80
2023-02-26T23:02:39.426Z,0.80
2023-02-26T23:05:09.175Z,0.80
2023-02-26T23:07:37.835Z,0.90
2023-02-26T23:10:08.863Z,0.90
2023-02-26T23:12:35.764Z,1.00
2023-02-26T23:15:03.109Z,1.00
2023-02-26T23:17:30.325Z,1.00
2023-02-26T23:19:57.209Z,1.00
2023-02-26T23:22:24.392Z,1.00
2023-02-26T23:24:51.206Z,1.00
2023-02-26T23:27:18.751Z,1.00
2023-02-26T23:29:45.956Z,1.00
2023-02-26T23:32:15.068Z,1.00
2023-02-26T23:34:42.002Z,1.00
2023-02-26T23:37:08.908Z,1.10
2023-02-26T23:39:35.841Z,1.10
2023-02-26T23:42:02.683Z,1.00
2023-02-26T23:44:29.672Z,1.00
2023-02-26T23:46:56.502Z,1.00
2023-02-26T23:49:23.331Z,1.00
2023-02-26T23:51:50.184Z,1.00
2023-02-26T23:54:17.029Z,1.00
2023-02-26T23:56:45.691Z,1.00
2023-02-26T23:59:13.824Z,1.00
